Time;durP1;ratioP1;P1;durP2;ratioP2;P2;SDS_P1;SDS_P2;PMS_P1;PMS_P2;Temp;Humidity;BMP_temperature;BMP_pressure;BME280_temperature;BME280_humidity;BME280_pressure;Samples;Min_cycle;Max_cycle;Signal;HPM_P1;HPM_P2
2024/01/20 00:00:16;;;;;;;23.03;17.37;;;;;;;-1.22;63.84;97181.63;5058712;28;20622;-66
2024/01/20 00:02:42;;;;;;;28.63;18.03;;;;;;;-1.64;65.58;97177.53;5059689;28;20217;-66
2024/01/20 00:05:08;;;;;;;24.90;16.20;;;;;;;-1.65;66.48;97180.97;5056737;28;20185;-65
2024/01/20 00:07:33;;;;;;;26.83;19.57;;;;;;;-1.16;64.36;97179.16;5052932;28;20620;-66
2024/01/20 00:09:59;;;;;;;25.20;16.60;;;;;;;-1.17;63.58;97174.81;5053169;28;20230;-66
2024/01/20 00:12:24;;;;;;;24.27;16.77;;;;;;;-1.11;63.41;97169.78;5062123;28;20829;-66
2024/01/20 00:14:50;;;;;;;32.33;17.60;;;;;;;-1.43;63.49;97165.84;5055236;28;20187;-65
2024/01/20 00:17:15;;;;;;;27.70;18.17;;;;;;;-1.21;63.25;97173.03;5052789;28;20179;-67
2024/01/20 00:19:41;;;;;;;21.53;15.20;;;;;;;-1.03;62.98;97167.28;5052863;28;20197;-66
2024/01/20 00:22:06;;;;;;;28.23;17.80;;;;;;;-1.42;63.63;97175.28;5057796;28;20238;-66
2024/01/20 00:24:32;;;;;;;27.20;19.33;;;;;;;-1.36;63.52;97170.25;5059737;28;20247;-67
2024/01/20 00:26:57;;;;;;;25.57;19.10;;;;;;;-1.22;63.29;97181.63;5061877;28;20182;-64
2024/01/20 00:29:22;;;;;;;24.77;16.20;;;;;;;-1.18;63.17;97170.53;5060902;28;20274;-66
2024/01/20 00:31:48;;;;;;;20.17;17.03;;;;;;;-1.11;62.52;97177.50;5054979;28;20308;-65
2024/01/20 00:34:13;;;;;;;23.80;16.47;;;;;;;-1.27;62.81;97187.56;5048243;28;20640;-65
2024/01/20 00:36:39;;;;;;;24.10;17.00;;;;;;;-1.54;62.85;97189.69;5055593;28;20196;-65
2024/01/20 00:39:04;;;;;;;30.37;19.37;;;;;;;-1.46;62.91;97189.84;5059187;28;20185;-66
2024/01/20 00:41:30;;;;;;;24.13;17.20;;;;;;;-1.59;62.86;97181.03;5058095;28;20178;-66
2024/01/20 00:43:55;;;;;;;27.77;17.80;;;;;;;-1.60;63.31;97183.63;5058144;28;20662;-64
2024/01/20 00:46:21;;;;;;;23.00;17.30;;;;;;;-1.33;62.21;97185.75;5049251;28;20273;-65
2024/01/20 00:48:46;;;;;;;26.77;18.17;;;;;;;-2.13;64.36;97185.28;5046865;28;20270;-65
2024/01/20 00:51:12;;;;;;;31.37;17.20;;;;;;;-2.20;65.17;97195.41;5062132;28;20202;-65
2024/01/20 00:53:37;;;;;;;26.37;18.77;;;;;;;-1.92;64.27;97184.78;5061923;28;20907;-66
2024/01/20 00:56:03;;;;;;;23.43;16.90;;;;;;;-1.80;63.64;97181.56;5064216;28;20251;-65
2024/01/20 00:58:28;;;;;;;22.67;16.37;;;;;;;-2.46;65.34;97193.19;5063226;28;20190;-65
2024/01/20 01:00:54;;;;;;;29.63;18.47;;;;;;;-2.81;66.59;97190.81;5054798;28;20212;-66
2024/01/20 01:03:20;;;;;;;24.80;17.10;;;;;;;-2.52;66.62;97194.81;5053022;28;20210;-65
2024/01/20 01:05:45;;;;;;;25.93;18.30;;;;;;;-2.00;64.96;97190.66;5058292;28;20294;-66
2024/01/20 01:08:11;;;;;;;22.07;16.40;;;;;;;-2.18;63.56;97194.59;5058460;28;20210;-65
2024/01/20 01:10:36;;;;;;;24.73;18.43;;;;;;;-2.03;63.96;97201.75;5063200;28;20210;-65
2024/01/20 01:13:02;;;;;;;24.93;16.00;;;;;;;-1.74;63.21;97202.25;5059936;28;20182;-66
2024/01/20 01:15:29;;;;;;;28.60;17.60;;;;;;;-1.45;62.63;97213.88;5053626;28;20279;-65
2024/01/20 01:17:54;;;;;;;26.10;16.30;;;;;;;-1.42;62.22;97214.78;5060495;28;20743;-65
2024/01/20 01:20:20;;;;;;;28.90;18.90;;;;;;;-1.36;61.86;97214.03;5063618;28;20460;-67
2024/01/20 01:22:45;;;;;;;25.70;16.20;;;;;;;-1.55;62.57;97212.84;5065028;28;20206;-65
2024/01/20 01:25:11;;;;;;;25.93;16.83;;;;;;;-1.39;62.18;97222.56;5065239;28;20178;-65
2024/01/20 01:27:36;;;;;;;24.70;17.40;;;;;;;-1.62;62.59;97229.91;5058339;28;20236;-65
2024/01/20 01:30:02;;;;;;;25.07;16.70;;;;;;;-1.57;62.57;97223.13;5059597;28;20308;-66
2024/01/20 01:32:27;;;;;;;25.80;15.23;;;;;;;-1.56;62.80;97208.53;5062335;28;20602;-67
2024/01/20 01:34:52;;;;;;;22.77;17.40;;;;;;;-1.19;62.38;97219.44;5063443;28;20186;-65
2024/01/20 01:37:18;;;;;;;28.37;16.50;;;;;;;-1.29;62.09;97221.00;5065431;28;20193;-66
2024/01/20 01:39:43;;;;;;;26.33;16.67;;;;;;;-1.44;62.15;97221.63;5067468;28;20213;-66
2024/01/20 01:42:09;;;;;;;28.13;18.03;;;;;;;-1.89;63.50;97214.88;5068046;28;20338;-65
2024/01/20 01:44:35;;;;;;;25.10;16.60;;;;;;;-2.12;64.30;97217.00;5073654;28;20187;-66
2024/01/20 01:47:00;;;;;;;25.40;17.17;;;;;;;-2.56;65.96;97217.00;5070537;28;20190;-67
2024/01/20 01:49:26;;;;;;;22.37;16.40;;;;;;;-2.10;65.19;97217.00;5083340;28;20288;-65
2024/01/20 01:51:52;;;;;;;23.73;17.07;;;;;;;-1.72;64.35;97222.88;5079030;28;20269;-66
2024/01/20 01:54:19;;;;;;;24.67;16.50;;;;;;;-1.49;64.13;97225.81;5085209;28;20272;-63
2024/01/20 01:56:47;;;;;;;25.47;16.90;;;;;;;-1.68;65.14;97228.91;5079866;28;20436;-66
2024/01/20 01:59:13;;;;;;;22.87;16.90;;;;;;;-1.32;64.13;97242.41;5075133;28;20424;-66
2024/01/20 02:01:38;;;;;;;29.23;17.17;;;;;;;-1.54;64.89;97238.59;5085995;28;20464;-65
2024/01/20 02:04:04;;;;;;;25.30;16.50;;;;;;;-1.80;65.34;97233.00;5081473;28;20191;-64
2024/01/20 02:06:30;;;;;;;26.77;16.80;;;;;;;-1.52;65.28;97229.19;5067473;28;20710;-66
2024/01/20 02:08:55;;;;;;;28.80;18.53;;;;;;;-1.73;65.83;97232.28;5059158;28;20189;-64
2024/01/20 02:11:21;;;;;;;39.13;18.67;;;;;;;-1.43;65.16;97232.78;5052668;28;20531;-67
2024/01/20 02:13:46;;;;;;;26.80;16.77;;;;;;;-1.40;64.62;97241.41;5058701;28;20581;-66
2024/01/20 02:16:12;;;;;;;32.40;19.00;;;;;;;-1.55;64.95;97238.59;5062875;28;20683;-66
2024/01/20 02:18:37;;;;;;;30.57;17.20;;;;;;;-1.61;66.39;97241.06;5065992;28;20184;-67
2024/01/20 02:21:05;;;;;;;30.00;18.50;;;;;;;-1.43;65.89;97249.09;5068341;28;20270;-65
2024/01/20 02:23:36;;;;;;;25.93;18.13;;;;;;;-1.22;65.32;97248.56;5064745;28;20816;-66
2024/01/20 02:26:02;;;;;;;25.77;16.97;;;;;;;-1.53;66.58;97248.06;5056723;28;20819;-67
2024/01/20 02:28:27;;;;;;;29.10;18.97;;;;;;;-1.89;67.88;97245.72;5060988;28;20448;-66
2024/01/20 02:30:52;;;;;;;33.60;18.23;;;;;;;-1.66;67.93;97251.25;5062622;28;20276;-67
2024/01/20 02:33:18;;;;;;;31.20;18.07;;;;;;;-1.42;66.92;97260.25;5065114;28;20177;-65
2024/01/20 02:35:43;;;;;;;29.17;16.40;;;;;;;-2.03;68.91;97262.56;5068711;28;20276;-66
2024/01/20 02:38:09;;;;;;;25.07;15.60;;;;;;;-1.84;68.10;97256.97;5061482;28;20188;-67
2024/01/20 02:40:34;;;;;;;30.73;15.70;;;;;;;-1.78;68.07;97258.78;5056938;28;20207;-64
2024/01/20 02:42:59;;;;;;;32.33;17.40;;;;;;;-1.85;67.90;97254.34;5062323;28;20205;-66
2024/01/20 02:45:25;;;;;;;31.27;15.80;;;;;;;-1.53;67.26;97263.53;5063394;28;20178;-65
2024/01/20 02:47:52;;;;;;;25.30;17.50;;;;;;;-1.61;68.47;97265.06;5066429;28;20268;-66
2024/01/20 02:50:18;;;;;;;30.53;16.57;;;;;;;-1.52;67.44;97269.53;5069480;28;20194;-66
2024/01/20 02:52:43;;;;;;;29.27;16.87;;;;;;;-1.65;67.58;97267.56;5069331;28;20434;-65
2024/01/20 02:55:09;;;;;;;30.10;17.30;;;;;;;-1.29;66.80;97267.34;5058253;28;20181;-65
2024/01/20 02:57:34;;;;;;;25.93;16.50;;;;;;;-1.38;66.68;97262.03;5061158;28;20203;-66
2024/01/20 02:59:59;;;;;;;24.33;16.23;;;;;;;-1.54;67.35;97269.50;5065821;28;20230;-66
2024/01/20 03:02:25;;;;;;;25.63;15.40;;;;;;;-1.27;66.49;97265.66;5068788;28;20198;-65
2024/01/20 03:04:50;;;;;;;31.57;17.30;;;;;;;-1.37;66.60;97271.50;5055381;28;20213;-65
2024/01/20 03:07:16;;;;;;;28.90;17.80;;;;;;;-1.46;67.04;97271.31;5056076;28;20654;-66
2024/01/20 03:09:41;;;;;;;26.40;15.97;;;;;;;-1.46;66.88;97266.19;5059258;28;20209;-66
2024/01/20 03:12:07;;;;;;;25.83;16.20;;;;;;;-1.64;67.67;97259.88;5062778;28;20178;-66
2024/01/20 03:14:33;;;;;;;26.40;17.33;;;;;;;-1.34;66.85;97254.41;5066978;28;20174;-63
2024/01/20 03:16:59;;;;;;;35.47;19.60;;;;;;;-1.45;67.07;97245.63;5067772;28;20178;-65
2024/01/20 03:19:24;;;;;;;25.87;17.90;;;;;;;-1.33;67.00;97245.81;5052082;28;20483;-66
2024/01/20 03:21:50;;;;;;;22.40;14.80;;;;;;;-1.39;66.96;97242.31;5059888;28;20230;-67
2024/01/20 03:24:19;;;;;;;27.73;17.97;;;;;;;-1.25;66.89;97242.50;5060301;28;20219;-66
2024/01/20 03:26:46;;;;;;;29.50;17.57;;;;;;;-1.18;66.22;97244.31;5061837;28;20569;-66
2024/01/20 03:29:12;;;;;;;31.07;17.20;;;;;;;-1.48;67.13;97249.88;5062909;28;20454;-65
2024/01/20 03:31:37;;;;;;;29.97;18.03;;;;;;;-1.44;67.41;97251.63;5054225;28;20441;-66
2024/01/20 03:34:03;;;;;;;27.10;17.07;;;;;;;-1.36;66.83;97256.06;5051206;28;20546;-67
2024/01/20 03:36:28;;;;;;;30.63;19.50;;;;;;;-1.24;66.59;97257.13;5053830;28;20189;-66
2024/01/20 03:38:53;;;;;;;34.70;18.03;;;;;;;-1.30;66.79;97263.03;5060403;28;20619;-67
2024/01/20 03:41:19;;;;;;;27.00;16.97;;;;;;;-1.36;67.04;97257.78;5066828;28;20198;-66
2024/01/20 03:43:44;;;;;;;31.87;18.03;;;;;;;-1.43;67.14;97264.53;5069767;28;20965;-65
2024/01/20 03:46:10;;;;;;;27.43;16.20;;;;;;;-1.43;67.05;97259.38;5073937;28;20182;-65
2024/01/20 03:48:35;;;;;;;38.27;17.20;;;;;;;-1.34;66.74;97256.97;5055881;28;20201;-66
2024/01/20 03:51:02;;;;;;;33.60;17.87;;;;;;;-1.24;66.33;97265.72;5052585;28;20560;-67
2024/01/20 03:53:28;;;;;;;38.90;18.00;;;;;;;-1.28;66.63;97263.91;5056277;28;20181;-65
2024/01/20 03:55:53;;;;;;;30.07;17.53;;;;;;;-1.14;66.32;97262.44;5062768;28;20428;-65
2024/01/20 03:58:19;;;;;;;30.97;18.90;;;;;;;-1.30;67.06;97270.75;5056110;28;20182;-66
2024/01/20 04:00:44;;;;;;;25.20;16.53;;;;;;;-1.31;67.15;97272.47;5055804;28;20209;-66
2024/01/20 04:03:09;;;;;;;26.50;16.57;;;;;;;-1.18;65.71;97278.69;5064763;28;20592;-66
2024/01/20 04:05:35;;;;;;;30.33;17.67;;;;;;;-1.43;66.53;97279.13;5065368;28;20633;-65
2024/01/20 04:08:00;;;;;;;26.00;15.50;;;;;;;-1.50;67.79;97284.16;5061600;28;20253;-66
2024/01/20 04:10:25;;;;;;;26.70;17.53;;;;;;;-2.40;69.95;97288.44;5065695;28;20189;-66
2024/01/20 04:12:51;;;;;;;26.97;15.97;;;;;;;-2.28;70.08;97287.81;5065750;28;20200;-66
2024/01/20 04:15:17;;;;;;;28.03;16.77;;;;;;;-2.31;69.70;97297.19;5053332;28;20186;-65
2024/01/20 04:17:42;;;;;;;32.20;17.23;;;;;;;-2.38;70.76;97306.47;5051437;28;20174;-66
2024/01/20 04:20:08;;;;;;;29.47;16.53;;;;;;;-2.52;71.13;97310.44;5064465;28;20206;-65
2024/01/20 04:22:33;;;;;;;32.13;17.70;;;;;;;-2.90;73.30;97308.75;5063765;28;20248;-65
2024/01/20 04:24:59;;;;;;;41.50;19.07;;;;;;;-2.91;71.69;97311.25;5061772;28;20483;-66
2024/01/20 04:27:24;;;;;;;31.70;17.20;;;;;;;-3.02;74.13;97326.44;5063768;28;20178;-65
2024/01/20 04:29:50;;;;;;;33.80;18.00;;;;;;;-3.07;72.68;97316.06;5058231;28;20713;-65
2024/01/20 04:32:15;;;;;;;33.70;18.43;;;;;;;-2.53;72.91;97312.13;5051503;28;20258;-66
2024/01/20 04:34:41;;;;;;;29.67;16.67;;;;;;;-2.21;70.75;97309.38;5064340;28;20549;-65
2024/01/20 04:37:06;;;;;;;31.30;18.67;;;;;;;-2.41;71.31;97314.09;5061930;28;20186;-66
2024/01/20 04:39:31;;;;;;;31.50;18.40;;;;;;;-2.42;71.37;97325.22;5060387;28;20285;-66
2024/01/20 04:41:57;;;;;;;33.67;18.77;;;;;;;-2.61;71.09;97331.66;5064178;28;20206;-66
2024/01/20 04:44:22;;;;;;;33.73;19.50;;;;;;;-2.85;72.25;97330.25;5068964;28;20659;-66
2024/01/20 04:46:47;;;;;;;33.10;19.87;;;;;;;-2.78;72.98;97332.13;5065477;28;20194;-66
2024/01/20 04:49:13;;;;;;;34.53;18.57;;;;;;;-2.83;72.21;97328.59;5068000;28;20292;-66
2024/01/20 04:51:38;;;;;;;38.20;20.60;;;;;;;-2.57;71.73;97325.75;5068120;28;20180;-67
2024/01/20 04:54:04;;;;;;;33.90;18.43;;;;;;;-2.66;72.70;97328.97;5069004;28;20649;-67
2024/01/20 04:56:29;;;;;;;36.27;19.20;;;;;;;-2.17;69.78;97321.47;5066869;28;20653;-64
2024/01/20 04:58:55;;;;;;;38.10;18.87;;;;;;;-2.32;70.81;97323.72;5062840;28;20278;-66
2024/01/20 05:01:21;;;;;;;38.60;19.30;;;;;;;-2.71;70.30;97325.44;5063183;28;20198;-66
2024/01/20 05:03:50;;;;;;;35.10;19.20;;;;;;;-2.42;70.07;97332.94;5060566;28;20719;-66
2024/01/20 05:06:15;;;;;;;36.90;19.30;;;;;;;-2.38;70.26;97329.59;5064916;28;20698;-66
2024/01/20 05:08:41;;;;;;;35.20;20.40;;;;;;;-2.60;70.92;97333.38;5068246;28;20436;-64
2024/01/20 05:11:06;;;;;;;30.57;17.87;;;;;;;-2.71;71.29;97340.00;5057967;28;20212;-65
2024/01/20 05:13:32;;;;;;;33.80;18.60;;;;;;;-2.50;70.30;97339.59;5058662;28;20175;-65
2024/01/20 05:15:57;;;;;;;35.93;18.80;;;;;;;-2.93;71.43;97344.59;5055663;28;20229;-65
2024/01/20 05:18:23;;;;;;;34.33;18.27;;;;;;;-2.89;72.38;97340.44;5059532;28;20171;-64
2024/01/20 05:20:48;;;;;;;38.87;18.83;;;;;;;-3.24;72.51;97346.41;5072396;28;20201;-66
2024/01/20 05:23:13;;;;;;;41.10;20.73;;;;;;;-3.28;73.44;97354.91;5080847;28;20210;-65
2024/01/20 05:25:39;;;;;;;45.90;22.90;;;;;;;-3.46;74.64;97347.56;5082659;28;20186;-66
2024/01/20 05:28:04;;;;;;;43.40;22.07;;;;;;;-2.81;72.61;97350.06;5076548;28;20270;-65
2024/01/20 05:30:30;;;;;;;44.83;23.90;;;;;;;-2.77;71.17;97348.41;5076534;28;20194;-66
2024/01/20 05:32:55;;;;;;;49.53;23.40;;;;;;;-3.11;72.45;97342.47;5072021;28;20174;-65
2024/01/20 05:35:21;;;;;;;43.67;21.17;;;;;;;-2.62;70.27;97353.91;5079461;28;20174;-67
2024/01/20 05:37:46;;;;;;;49.87;24.07;;;;;;;-2.92;71.94;97358.34;5069614;28;20221;-66
2024/01/20 05:40:12;;;;;;;45.30;22.23;;;;;;;-2.60;70.87;97364.22;5066584;28;20260;-67
2024/01/20 05:42:37;;;;;;;35.97;20.07;;;;;;;-2.80;71.16;97368.91;5060456;28;20201;-66
2024/01/20 05:45:04;;;;;;;39.73;22.33;;;;;;;-2.52;70.34;97367.84;5068086;28;20194;-65
2024/01/20 05:47:29;;;;;;;44.83;24.87;;;;;;;-2.92;70.91;97374.59;5064305;28;20190;-66
2024/01/20 05:49:54;;;;;;;55.50;24.90;;;;;;;-2.84;71.18;97375.66;5067156;28;20466;-66
2024/01/20 05:52:20;;;;;;;45.93;23.47;;;;;;;-2.67;71.16;97376.06;5068927;28;20170;-67
2024/01/20 05:54:45;;;;;;;39.53;20.30;;;;;;;-2.79;71.92;97381.78;5065027;28;20178;-66
2024/01/20 05:57:10;;;;;;;27.57;17.90;;;;;;;-2.88;72.05;97383.25;5065284;28;20177;-69
2024/01/20 05:59:36;;;;;;;34.47;19.07;;;;;;;-2.79;71.55;97379.22;5061670;28;20202;-67
2024/01/20 06:02:01;;;;;;;33.77;19.37;;;;;;;-2.84;72.05;97378.22;5068143;28;20718;-66
2024/01/20 06:04:27;;;;;;;36.87;21.60;;;;;;;-2.97;72.18;97373.63;5067164;28;20220;-66
2024/01/20 06:06:52;;;;;;;39.03;20.57;;;;;;;-2.75;70.89;97374.16;5066434;28;20174;-66
2024/01/20 06:09:18;;;;;;;38.93;19.27;;;;;;;-3.03;71.18;97384.59;5067207;28;20185;-66
2024/01/20 06:11:43;;;;;;;40.63;18.13;;;;;;;-2.75;71.41;97384.41;5065128;28;20641;-66
2024/01/20 06:14:08;;;;;;;40.37;18.87;;;;;;;-3.18;72.71;97389.38;5065820;28;20252;-67
2024/01/20 06:16:37;;;;;;;34.43;18.97;;;;;;;-3.13;73.36;97392.91;5067553;28;20201;-66
2024/01/20 06:19:02;;;;;;;32.80;18.30;;;;;;;-3.33;73.65;97396.66;5062643;28;20217;-65
2024/01/20 06:21:28;;;;;;;28.40;16.37;;;;;;;-3.56;73.68;97388.38;5070725;28;20475;-65
2024/01/20 06:23:53;;;;;;;29.80;16.43;;;;;;;-3.72;76.12;97397.31;5060219;28;20203;-64
2024/01/20 06:26:19;;;;;;;32.93;18.00;;;;;;;-3.50;75.42;97398.78;5067431;28;20293;-66
2024/01/20 06:28:44;;;;;;;37.30;18.90;;;;;;;-3.31;74.51;97406.13;5055900;28;20289;-65
2024/01/20 06:31:23;;;;;;;38.07;20.87;;;;;;;-3.48;74.76;97400.53;5057979;28;20236;-66
2024/01/20 06:33:49;;;;;;;41.70;20.10;;;;;;;-3.37;75.17;97407.69;5065072;28;20174;-67
2024/01/20 06:36:14;;;;;;;36.50;18.07;;;;;;;-3.55;75.31;97403.78;5066452;28;20439;-65
2024/01/20 06:38:40;;;;;;;35.53;19.73;;;;;;;-3.20;73.88;97409.84;5056110;28;20489;-66
2024/01/20 06:41:05;;;;;;;36.63;17.80;;;;;;;-3.35;73.86;97411.13;5061555;28;20207;-64
2024/01/20 06:43:31;;;;;;;39.13;20.60;;;;;;;-3.18;74.50;97411.59;5063238;28;20206;-65
2024/01/20 06:45:57;;;;;;;32.37;18.30;;;;;;;-3.43;73.20;97419.50;5059539;28;20490;-63
2024/01/20 06:48:24;;;;;;;47.40;19.83;;;;;;;-3.34;74.48;97424.03;5067210;28;20205;-66
2024/01/20 06:50:49;;;;;;;40.43;19.13;;;;;;;-3.65;75.02;97430.88;5069038;28;20892;-65
2024/01/20 06:53:15;;;;;;;41.50;21.00;;;;;;;-3.62;75.11;97430.09;5063839;28;20472;-64
2024/01/20 06:55:40;;;;;;;31.90;17.87;;;;;;;-3.87;75.57;97446.50;5061003;28;20193;-64
2024/01/20 06:58:05;;;;;;;33.77;20.43;;;;;;;-3.37;75.71;97423.94;5066385;28;20182;-64
2024/01/20 07:00:31;;;;;;;46.17;19.43;;;;;;;-3.10;74.71;97417.78;5064905;28;20982;-63
2024/01/20 07:02:58;;;;;;;40.67;20.23;;;;;;;-3.61;74.56;97421.59;5068726;28;20206;-66
2024/01/20 07:05:23;;;;;;;37.20;18.30;;;;;;;-3.08;72.45;97422.13;5058030;28;20185;-65
2024/01/20 07:07:49;;;;;;;35.93;19.40;;;;;;;-2.97;72.90;97417.28;5067772;28;20994;-68
2024/01/20 07:10:14;;;;;;;32.87;19.90;;;;;;;-2.84;72.73;97421.03;5060002;28;20200;-67
2024/01/20 07:12:40;;;;;;;37.53;20.40;;;;;;;-3.02;72.41;97421.44;5066886;28;20174;-68
2024/01/20 07:15:06;;;;;;;38.33;18.97;;;;;;;-3.23;74.53;97429.44;5059514;28;20181;-65
2024/01/20 07:17:31;;;;;;;26.37;16.23;;;;;;;-3.18;72.97;97427.00;5062474;28;20509;-65
2024/01/20 07:19:57;;;;;;;39.43;17.13;;;;;;;-3.22;73.68;97429.47;5059020;28;20247;-65
2024/01/20 07:22:23;;;;;;;28.03;17.53;;;;;;;-3.18;72.70;97440.72;5069293;28;20198;-65
2024/01/20 07:24:48;;;;;;;34.97;18.30;;;;;;;-3.04;72.63;97446.22;5070131;28;20423;-67
2024/01/20 07:27:14;;;;;;;43.93;21.37;;;;;;;-3.05;73.66;97444.44;5061114;28;20201;-66
2024/01/20 07:29:39;;;;;;;52.40;19.03;;;;;;;-3.41;73.37;97452.91;5068811;28;20201;-65
2024/01/20 07:32:05;;;;;;;38.57;19.53;;;;;;;-3.00;73.59;97460.84;5069131;28;20236;-65
2024/01/20 07:34:30;;;;;;;47.37;18.63;;;;;;;-2.71;71.60;97460.75;5069272;28;20261;-65
2024/01/20 07:36:56;;;;;;;58.33;20.47;;;;;;;-2.86;71.88;97467.22;5070807;28;20191;-67
2024/01/20 07:39:21;;;;;;;41.97;19.50;;;;;;;-2.25;70.24;97469.56;5082946;28;20187;-68
2024/01/20 07:41:47;;;;;;;43.63;18.20;;;;;;;-3.06;72.89;97465.84;5088557;28;20447;-65
2024/01/20 07:44:13;;;;;;;38.30;18.67;;;;;;;-2.95;72.55;97472.13;5089020;28;20260;-68
2024/01/20 07:46:38;;;;;;;37.83;19.27;;;;;;;-3.32;74.32;97480.53;5079352;28;20574;-67
2024/01/20 07:49:03;;;;;;;42.83;19.87;;;;;;;-3.26;72.67;97472.97;5069666;28;20174;-66
2024/01/20 07:51:29;;;;;;;54.43;24.90;;;;;;;-2.60;71.00;97474.69;5068615;28;20218;-67
2024/01/20 07:53:54;;;;;;;42.67;19.63;;;;;;;-2.32;69.76;97463.38;5070567;28;20170;-64
2024/01/20 07:56:20;;;;;;;49.93;20.17;;;;;;;-2.10;69.70;97463.88;5059472;28;20344;-65
2024/01/20 07:58:45;;;;;;;38.07;19.23;;;;;;;-2.23;69.52;97460.19;5059526;28;20185;-66
2024/01/20 08:01:10;;;;;;;45.00;20.80;;;;;;;-2.21;68.96;97468.81;5055139;28;20205;-65
2024/01/20 08:03:36;;;;;;;39.50;21.03;;;;;;;-2.10;67.98;97471.59;5063883;28;20230;-66
2024/01/20 08:06:02;;;;;;;48.77;22.33;;;;;;;-2.48;69.42;97476.72;5063420;28;20183;-67
2024/01/20 08:08:27;;;;;;;75.20;23.10;;;;;;;-2.62;70.37;97489.25;5061590;28;20954;-66
2024/01/20 08:10:52;;;;;;;44.50;19.63;;;;;;;-2.60;69.06;97487.56;5062539;28;20535;-66
2024/01/20 08:13:19;;;;;;;34.50;18.87;;;;;;;-2.43;68.71;97501.72;5064821;28;20308;-66
2024/01/20 08:15:45;;;;;;;43.50;19.40;;;;;;;-3.08;70.82;97499.16;5060214;28;20185;-63
2024/01/20 08:18:10;;;;;;;47.67;18.40;;;;;;;-2.53;69.65;97510.00;5061498;28;20428;-65
2024/01/20 08:20:36;;;;;;;32.37;18.30;;;;;;;-2.12;67.38;97505.00;5078015;28;21078;-66
2024/01/20 08:23:01;;;;;;;35.23;17.10;;;;;;;-2.57;68.67;97514.22;5063899;28;20661;-66
2024/01/20 08:25:26;;;;;;;36.20;17.37;;;;;;;-2.29;68.68;97508.88;5053186;28;20186;-66
2024/01/20 08:27:52;;;;;;;48.20;16.83;;;;;;;-2.38;67.44;97515.53;5051193;28;20175;-67
2024/01/20 08:30:17;;;;;;;36.67;16.37;;;;;;;-1.84;66.88;97518.50;5060170;28;20202;-64
2024/01/20 08:32:42;;;;;;;28.90;15.67;;;;;;;-1.85;65.74;97511.63;5059243;28;20178;-68
2024/01/20 08:35:10;;;;;;;28.47;18.03;;;;;;;-1.68;65.93;97518.00;5062211;28;20182;-67
2024/01/20 08:37:35;;;;;;;33.93;17.10;;;;;;;-1.63;65.24;97524.13;5061031;28;20607;-66
2024/01/20 08:40:00;;;;;;;30.90;17.70;;;;;;;-1.57;65.24;97526.84;5053891;28;20457;-67
2024/01/20 08:42:26;;;;;;;26.90;15.00;;;;;;;-2.51;66.45;97534.03;5057682;28;20202;-66
2024/01/20 08:44:51;;;;;;;28.43;15.83;;;;;;;-2.24;67.78;97527.88;5065978;28;20597;-65
2024/01/20 08:47:17;;;;;;;26.70;14.97;;;;;;;-1.82;65.20;97527.13;5066582;28;20248;-67
2024/01/20 08:49:42;;;;;;;26.20;14.63;;;;;;;-1.55;63.89;97527.75;5067962;28;20202;-64
2024/01/20 08:52:08;;;;;;;27.87;15.60;;;;;;;-1.57;64.66;97537.13;5069012;28;20177;-66
2024/01/20 08:54:33;;;;;;;27.33;16.83;;;;;;;-1.89;64.73;97540.69;5079142;28;20188;-67
2024/01/20 08:56:59;;;;;;;27.80;16.13;;;;;;;-2.44;66.24;97543.66;5067354;28;20626;-67
2024/01/20 08:59:24;;;;;;;28.63;16.33;;;;;;;-1.61;65.55;97543.03;5077860;28;20237;-66
2024/01/20 09:01:50;;;;;;;26.33;15.10;;;;;;;-0.98;63.09;97543.50;5072060;28;20248;-66
2024/01/20 09:04:16;;;;;;;28.60;17.77;;;;;;;1.09;58.03;97536.41;5067677;28;20198;-65
2024/01/20 09:06:41;;;;;;;46.30;15.70;;;;;;;2.68;51.99;97526.53;5071079;28;20445;-66
2024/01/20 09:09:07;;;;;;;33.17;15.80;;;;;;;3.08;50.11;97518.94;5075964;28;20208;-66
2024/01/20 09:11:32;;;;;;;29.60;15.67;;;;;;;2.14;52.00;97521.88;5077018;28;20178;-65
2024/01/20 09:13:57;;;;;;;28.67;15.27;;;;;;;1.71;53.12;97519.81;5077752;28;20212;-66
2024/01/20 09:16:23;;;;;;;27.33;15.70;;;;;;;1.54;53.82;97529.16;5068728;28;20182;-68
2024/01/20 09:18:48;;;;;;;25.17;14.70;;;;;;;2.66;50.64;97523.06;5063385;28;20193;-66
2024/01/20 09:21:13;;;;;;;30.13;17.47;;;;;;;2.90;49.61;97532.69;5048533;28;20202;-66
2024/01/20 09:23:39;;;;;;;32.80;17.33;;;;;;;3.04;49.54;97537.94;5054470;28;20302;-69
2024/01/20 09:26:04;;;;;;;28.53;17.20;;;;;;;3.71;47.15;97537.28;5054168;28;20186;-68
2024/01/20 09:28:30;;;;;;;26.93;16.33;;;;;;;3.89;47.07;97551.13;5062179;28;20201;-67
2024/01/20 09:30:55;;;;;;;35.23;19.17;;;;;;;3.66;47.88;97549.38;5064353;28;20203;-68
2024/01/20 09:33:20;;;;;;;30.57;16.00;;;;;;;3.72;47.78;97551.97;5064352;28;20197;-66
2024/01/20 09:35:46;;;;;;;27.03;16.63;;;;;;;3.40;48.70;97549.28;5050477;28;20195;-68
2024/01/20 09:38:11;;;;;;;25.50;15.83;;;;;;;2.61;50.07;97555.00;5053212;28;20186;-67
2024/01/20 09:40:37;;;;;;;28.40;17.43;;;;;;;3.73;48.21;97550.22;5059139;28;20812;-67
2024/01/20 09:43:04;;;;;;;27.93;17.57;;;;;;;3.44;49.14;97556.22;5057274;28;20285;-67
2024/01/20 09:45:30;;;;;;;30.27;17.17;;;;;;;2.97;50.55;97562.97;5060176;28;20186;-68
2024/01/20 09:47:57;;;;;;;25.57;15.60;;;;;;;3.40;49.80;97554.47;5055193;28;20448;-67
2024/01/20 09:50:22;;;;;;;26.80;16.30;;;;;;;3.84;49.01;97550.25;5052482;28;20457;-68
2024/01/20 09:52:55;;;;;;;32.20;16.77;;;;;;;4.28;47.39;97552.03;5061183;28;20428;-67
2024/01/20 09:55:23;;;;;;;35.03;14.80;;;;;;;4.64;44.89;97556.28;5060301;28;20182;-67
2024/01/20 09:57:50;;;;;;;28.00;14.90;;;;;;;3.82;47.09;97556.28;5059659;28;20444;-67
2024/01/20 10:00:19;;;;;;;24.47;14.20;;;;;;;2.82;49.30;97567.22;5054829;28;20525;-67
2024/01/20 10:02:45;;;;;;;23.73;15.00;;;;;;;2.88;49.41;97564.66;5051061;28;20456;-69
2024/01/20 10:05:12;;;;;;;26.60;15.43;;;;;;;2.99;50.35;97565.56;5058284;28;20435;-66
2024/01/20 10:07:37;;;;;;;24.60;14.90;;;;;;;3.02;50.12;97563.00;5058510;28;20550;-67
2024/01/20 10:10:03;;;;;;;24.73;14.20;;;;;;;2.81;50.02;97568.97;5070787;28;20525;-67
2024/01/20 10:12:28;;;;;;;25.80;15.73;;;;;;;2.87;49.69;97570.69;5078326;28;20640;-69
2024/01/20 10:14:54;;;;;;;20.77;13.83;;;;;;;3.62;48.32;97565.81;5060464;28;20182;-68
2024/01/20 10:17:20;;;;;;;27.50;16.20;;;;;;;2.50;50.48;97567.88;5056042;28;20850;-67
2024/01/20 10:19:45;;;;;;;23.23;14.83;;;;;;;2.44;51.20;97565.28;5063253;28;20229;-68
2024/01/20 10:22:11;;;;;;;24.43;15.90;;;;;;;3.46;49.60;97557.09;5065572;28;20889;-68
2024/01/20 10:24:51;;;;;;;27.27;16.57;;;;;;;3.11;49.99;97554.38;5068660;28;20602;-67
2024/01/20 10:27:23;;;;;;;25.30;14.53;;;;;;;3.64;49.32;97553.69;5057856;28;20428;-67
2024/01/20 10:29:49;;;;;;;27.90;16.00;;;;;;;3.57;49.53;97546.75;5051325;28;20449;-67
2024/01/20 10:32:15;;;;;;;34.33;16.93;;;;;;;4.29;46.79;97548.53;5057693;28;20903;-67
2024/01/20 10:34:41;;;;;;;23.30;14.27;;;;;;;4.28;46.60;97549.41;5057801;28;20463;-68
2024/01/20 10:37:12;;;;;;;24.63;14.60;;;;;;;4.37;47.02;97546.78;5071136;28;20449;-67
2024/01/20 10:39:46;;;;;;;24.80;15.13;;;;;;;4.02;47.21;97540.75;5071311;28;20462;-68
2024/01/20 10:42:15;;;;;;;25.03;16.10;;;;;;;4.08;47.08;97542.47;5055387;28;20490;-68
2024/01/20 10:44:46;;;;;;;21.90;14.13;;;;;;;3.64;48.36;97532.94;5052618;27;20450;-67
2024/01/20 10:47:16;;;;;;;25.50;15.50;;;;;;;4.18;47.87;97526.03;5068654;28;20443;-66
2024/01/20 10:49:48;;;;;;;26.40;16.27;;;;;;;3.69;48.12;97536.41;5074120;28;20463;-67
2024/01/20 10:52:14;;;;;;;22.70;14.97;;;;;;;3.68;48.60;97541.56;5071311;28;20439;-67
2024/01/20 10:54:43;;;;;;;24.50;15.37;;;;;;;4.10;48.09;97542.47;5078921;28;20435;-69
2024/01/20 10:57:09;;;;;;;24.40;14.50;;;;;;;4.34;47.06;97542.47;5087597;28;20185;-69
2024/01/20 10:59:41;;;;;;;28.60;15.87;;;;;;;4.68;45.29;97532.03;5070955;28;21106;-68
2024/01/20 11:02:10;;;;;;;27.27;14.27;;;;;;;4.48;45.17;97531.19;5073017;28;20435;-68
2024/01/20 11:04:37;;;;;;;20.43;11.80;;;;;;;4.29;45.82;97526.00;5082474;28;20443;-67
2024/01/20 11:07:03;;;;;;;22.10;12.90;;;;;;;4.11;45.63;97526.91;5086917;28;20427;-68
2024/01/20 11:09:30;;;;;;;15.07;11.10;;;;;;;3.36;46.77;97540.66;5075383;28;20440;-68
2024/01/20 11:12:06;;;;;;;21.93;13.23;;;;;;;3.90;45.94;97532.97;5078596;28;20264;-67